createdAt,value
2019-05-01T00:00:30.712Z,13.03
2019-05-01T00:01:40.683Z,12.93
2019-05-01T00:02:50.623Z,12.91
2019-05-01T00:04:00.579Z,12.94
2019-05-01T00:05:10.541Z,12.94
2019-05-01T00:06:20.487Z,12.94
2019-05-01T00:07:30.185Z,13.03
2019-05-01T00:08:39.904Z,12.94
2019-05-01T00:09:49.595Z,13.01
2019-05-01T00:10:59.537Z,12.95
2019-05-01T00:12:09.228Z,13.05
2019-05-01T00:13:18.945Z,13.03
2019-05-01T00:14:28.391Z,13.02
2019-05-01T00:15:38.343Z,12.99
2019-05-01T00:16:48.057Z,12.99
2019-05-01T00:17:58.020Z,12.99
2019-05-01T00:19:07.976Z,12.98
2019-05-01T00:20:17.980Z,12.91
2019-05-01T00:21:27.682Z,12.88
2019-05-01T00:22:37.391Z,12.99
2019-05-01T00:23:47.082Z,12.88
2019-05-01T00:24:57.033Z,12.88
2019-05-01T00:26:06.801Z,12.9
2019-05-01T00:27:16.735Z,12.88
2019-05-01T00:28:26.426Z,12.8
2019-05-01T00:29:36.373Z,12.78
2019-05-01T00:30:46.308Z,12.8
2019-05-01T00:31:56.008Z,12.88
2019-05-01T00:33:05.727Z,12.83
2019-05-01T00:34:15.671Z,12.81
2019-05-01T00:35:25.609Z,12.76
2019-05-01T00:36:35.066Z,12.78
2019-05-01T00:37:44.769Z,12.73
2019-05-01T00:38:54.469Z,12.72
2019-05-01T00:40:04.160Z,12.73
2019-05-01T00:41:13.855Z,12.78
2019-05-01T00:42:23.811Z,12.75
2019-05-01T00:43:33.761Z,12.78
2019-05-01T00:44:43.715Z,12.75
2019-05-01T00:45:53.420Z,12.73
2019-05-01T00:47:03.413Z,12.73
2019-05-01T00:48:13.421Z,12.78
2019-05-01T00:49:23.112Z,12.75
2019-05-01T00:50:33.087Z,12.73
2019-05-01T00:51:43.021Z,12.75
2019-05-01T00:52:52.984Z,12.76
2019-05-01T00:54:02.938Z,12.72
2019-05-01T00:55:12.893Z,12.76
2019-05-01T00:56:22.875Z,12.75
2019-05-01T00:57:32.880Z,12.69
2019-05-01T00:58:42.589Z,12.65
2019-05-01T00:59:52.023Z,12.7
2019-05-01T01:01:01.507Z,12.7
2019-05-01T01:02:11.444Z,12.68
2019-05-01T01:03:20.894Z,12.65
2019-05-01T01:04:30.353Z,12.66
2019-05-01T01:05:40.053Z,12.72
2019-05-01T01:06:50.010Z,12.69
2019-05-01T01:07:59.976Z,12.72
2019-05-01T01:09:09.923Z,12.65
2019-05-01T01:10:19.663Z,12.66
2019-05-01T01:11:29.611Z,12.68
2019-05-01T01:12:39.384Z,12.65
2019-05-01T01:13:49.080Z,12.65
2019-05-01T01:14:59.027Z,12.53
2019-05-01T01:16:08.992Z,12.63
2019-05-01T01:17:18.946Z,12.55
2019-05-01T01:18:28.691Z,12.5
2019-05-01T01:19:38.636Z,12.53
2019-05-01T01:20:48.591Z,12.53
2019-05-01T01:21:58.042Z,12.51
2019-05-01T01:23:08.019Z,12.5
2019-05-01T01:24:17.714Z,12.4
2019-05-01T01:25:27.659Z,12.4
2019-05-01T01:26:37.112Z,12.39
2019-05-01T01:27:47.065Z,12.39
2019-05-01T01:28:57.015Z,12.35
2019-05-01T01:30:06.724Z,12.33
2019-05-01T01:31:16.922Z,12.32
2019-05-01T01:32:26.888Z,12.39
2019-05-01T01:33:36.583Z,12.4
2019-05-01T01:34:46.023Z,12.32
2019-05-01T01:35:55.726Z,12.32
2019-05-01T01:37:05.421Z,12.33
2019-05-01T01:38:15.373Z,12.28
2019-05-01T01:39:25.337Z,12.23
2019-05-01T01:40:35.328Z,12.29
2019-05-01T01:41:45.273Z,12.2
2019-05-01T01:42:55.210Z,12.23
2019-05-01T01:44:05.162Z,12.1
2019-05-01T01:45:15.113Z,12.1
2019-05-01T01:46:25.058Z,12
2019-05-01T01:47:34.502Z,12.03
2019-05-01T01:48:44.256Z,11.99
2019-05-01T01:49:53.959Z,11.99
2019-05-01T01:51:03.404Z,12.02
2019-05-01T01:52:13.347Z,12.05
2019-05-01T01:53:23.317Z,12
2019-05-01T01:54:32.764Z,12.07
2019-05-01T01:55:42.710Z,12.14
2019-05-01T01:56:52.652Z,12.07
2019-05-01T01:58:02.354Z,12.1
2019-05-01T01:59:12.049Z,12.11
2019-05-01T02:00:21.999Z,12.12
2019-05-01T02:01:31.975Z,12.05
2019-05-01T02:02:41.687Z,12.03
2019-05-01T02:03:51.386Z,11.91
2019-05-01T02:05:01.334Z,11.73
2019-05-01T02:06:11.026Z,11.53
2019-05-01T02:07:20.962Z,11.43
2019-05-01T02:08:30.417Z,11.27
2019-05-01T02:09:40.102Z,11.18
2019-05-01T02:10:50.085Z,11.19
2019-05-01T02:11:59.786Z,11.15
2019-05-01T02:13:09.488Z,11.12
2019-05-01T02:14:19.186Z,11.18
2019-05-01T02:15:29.130Z,11.13
2019-05-01T02:16:38.834Z,11.13
2019-05-01T02:17:48.531Z,11.13
2019-05-01T02:18:58.218Z,11.19
2019-05-01T02:20:07.676Z,11.25
2019-05-01T02:21:17.129Z,11.23
2019-05-01T02:22:26.574Z,11.19
2019-05-01T02:23:36.286Z,11.23
2019-05-01T02:24:46.254Z,11.31
2019-05-01T02:25:55.719Z,11.3
2019-05-01T02:27:05.180Z,11.23
2019-05-01T02:28:15.126Z,11.34
2019-05-01T02:29:25.069Z,11.35
2019-05-01T02:30:34.777Z,11.49
2019-05-01T02:31:44.504Z,11.35
2019-05-01T02:32:54.220Z,11.43
2019-05-01T02:34:04.206Z,11.51
2019-05-01T02:35:13.973Z,11.52
2019-05-01T02:36:23.444Z,11.48
2019-05-01T02:37:33.406Z,11.49
2019-05-01T02:38:43.102Z,11.52
2019-05-01T02:39:53.063Z,11.51
2019-05-01T02:41:03.063Z,11.56
2019-05-01T02:42:13.317Z,11.56
2019-05-01T02:43:23.020Z,11.56
2019-05-01T02:44:32.730Z,11.58
2019-05-01T02:45:42.700Z,11.56
2019-05-01T02:46:52.660Z,11.6
2019-05-01T02:48:02.376Z,11.58
2019-05-01T02:49:12.435Z,11.59
2019-05-01T02:50:22.143Z,11.58
2019-05-01T02:51:32.103Z,11.59
2019-05-01T02:52:41.821Z,11.55
2019-05-01T02:53:51.785Z,11.53
2019-05-01T02:55:01.489Z,11.56
2019-05-01T02:56:11.450Z,11.58
2019-05-01T02:57:21.407Z,11.58
2019-05-01T02:58:31.390Z,11.55
2019-05-01T02:59:41.356Z,11.51
2019-05-01T03:00:51.310Z,11.55
2019-05-01T03:02:01.041Z,11.55
2019-05-01T03:03:11.005Z,11.58
2019-05-01T03:04:20.975Z,11.59
2019-05-01T03:05:30.944Z,11.6
2019-05-01T03:06:40.433Z,11.52
2019-05-01T03:07:50.395Z,11.55
2019-05-01T03:09:00.109Z,11.56
2019-05-01T03:10:14.258Z,11.55
2019-05-01T03:11:24.228Z,11.53
2019-05-01T03:12:34.186Z,11.55
2019-05-01T03:13:43.894Z,11.51
2019-05-01T03:14:53.369Z,11.55
2019-05-01T03:16:03.089Z,11.55
2019-05-01T03:17:12.785Z,11.59
2019-05-01T03:18:22.742Z,11.51
2019-05-01T03:19:32.722Z,11.59
2019-05-01T03:20:42.686Z,11.48
2019-05-01T03:21:52.415Z,11.48
2019-05-01T03:23:02.371Z,11.41
2019-05-01T03:24:12.335Z,11.53
2019-05-01T03:25:22.293Z,11.45
2019-05-01T03:26:32.356Z,11.48
2019-05-01T03:27:42.310Z,11.49
2019-05-01T03:28:51.748Z,11.49
2019-05-01T03:30:01.727Z,11.41
2019-05-01T03:31:11.768Z,11.35
2019-05-01T03:32:24.252Z,11.35
2019-05-01T03:33:33.780Z,11.33
2019-05-01T03:34:43.533Z,11.27
2019-05-01T03:35:59.347Z,11.26
2019-05-01T03:37:09.091Z,11.27
2019-05-01T03:38:19.062Z,11.25
2019-05-01T03:39:29.047Z,11.26
2019-05-01T03:40:39.015Z,11.27
2019-05-01T03:41:48.801Z,11.3
2019-05-01T03:42:58.532Z,11.34
2019-05-01T03:44:08.495Z,11.38
2019-05-01T03:45:18.472Z,11.38
2019-05-01T03:46:28.419Z,11.33
2019-05-01T03:47:38.382Z,11.44
2019-05-01T03:48:48.102Z,11.41
2019-05-01T03:49:57.808Z,11.45
2019-05-01T03:51:07.551Z,11.38
2019-05-01T03:52:17.509Z,11.27
2019-05-01T03:53:27.225Z,11.3
2019-05-01T03:54:36.671Z,11.25
2019-05-01T03:55:46.670Z,11.23
2019-05-01T03:56:56.623Z,11.25
2019-05-01T03:58:06.339Z,11.19
2019-05-01T03:59:16.299Z,11.2
2019-05-01T04:00:26.250Z,11.22
2019-05-01T04:01:35.966Z,11.22
2019-05-01T04:02:45.424Z,11.2
2019-05-01T04:03:55.457Z,11.23
2019-05-01T04:05:05.407Z,11.13
2019-05-01T04:06:15.467Z,11.13
2019-05-01T04:07:24.685Z,11.16
2019-05-01T04:08:34.647Z,11.19
2019-05-01T04:09:44.610Z,11.22
2019-05-01T04:10:54.565Z,11.16
2019-05-01T04:12:04.270Z,11.22
2019-05-01T04:13:14.233Z,11.19
2019-05-01T04:14:24.187Z,11.25
2019-05-01T04:15:33.910Z,11.2
2019-05-01T04:16:43.605Z,11.19
2019-05-01T04:17:53.607Z,11.2
2019-05-01T04:19:03.563Z,11.13
2019-05-01T04:20:13.533Z,11.16
2019-05-01T04:21:23.573Z,11.12
2019-05-01T04:22:33.530Z,11
2019-05-01T04:23:43.244Z,11.02
2019-05-01T04:24:53.243Z,11.02
2019-05-01T04:26:03.245Z,10.86
2019-05-01T04:27:13.206Z,10.76
2019-05-01T04:28:23.161Z,10.76
2019-05-01T04:29:33.207Z,10.67
2019-05-01T04:30:42.906Z,10.59
2019-05-01T04:31:52.654Z,10.55
2019-05-01T04:33:02.621Z,10.59
2019-05-01T04:34:12.571Z,10.49
2019-05-01T04:35:22.559Z,10.55
2019-05-01T04:36:32.531Z,10.45
2019-05-01T04:37:41.978Z,10.48
2019-05-01T04:38:51.460Z,10.51
2019-05-01T04:40:01.166Z,10.49
2019-05-01T04:41:11.119Z,10.41
2019-05-01T04:42:20.826Z,10.41
2019-05-01T04:43:30.576Z,10.33
2019-05-01T04:44:40.537Z,10.38
2019-05-01T04:45:50.513Z,10.43
2019-05-01T04:46:59.974Z,10.43
2019-05-01T04:48:09.667Z,10.34
2019-05-01T04:49:22.667Z,10.36
2019-05-01T04:50:32.648Z,10.34
2019-05-01T04:51:42.646Z,10.39
2019-05-01T04:52:52.343Z,10.34
2019-05-01T04:54:02.033Z,10.38
2019-05-01T04:55:11.981Z,10.3
2019-05-01T04:56:21.972Z,10.34
2019-05-01T04:57:31.931Z,10.34
2019-05-01T04:58:41.649Z,10.36
2019-05-01T04:59:51.349Z,10.36
2019-05-01T05:01:01.296Z,10.34
2019-05-01T05:02:11.239Z,10.38
2019-05-01T05:03:21.220Z,10.33
2019-05-01T05:04:30.653Z,10.42
2019-05-01T05:05:40.345Z,10.38
2019-05-01T05:06:50.051Z,10.42
2019-05-01T05:07:59.994Z,10.3
2019-05-01T05:09:10.209Z,10.36
2019-05-01T05:10:20.160Z,10.25
2019-05-01T05:11:29.851Z,10.31
2019-05-01T05:12:39.537Z,10.36
2019-05-01T05:13:51.582Z,10.33
2019-05-01T05:15:01.035Z,10.43
2019-05-01T05:16:11.013Z,10.38
2019-05-01T05:17:20.969Z,10.39
2019-05-01T05:18:30.655Z,10.39
2019-05-01T05:19:40.097Z,10.39
2019-05-01T05:20:50.051Z,10.45
2019-05-01T05:22:00.011Z,10.42
2019-05-01T05:23:09.702Z,10.41
2019-05-01T05:24:19.404Z,10.38
2019-05-01T05:25:28.865Z,10.45
2019-05-01T05:26:38.830Z,10.45
2019-05-01T05:27:48.759Z,10.45
2019-05-01T05:28:58.459Z,10.53
2019-05-01T05:30:08.182Z,10.51
2019-05-01T05:31:17.875Z,10.51
2019-05-01T05:32:27.319Z,10.55
2019-05-01T05:33:37.054Z,10.62
2019-05-01T05:34:46.522Z,10.57
2019-05-01T05:35:56.241Z,10.51
2019-05-01T05:37:06.196Z,10.53
2019-05-01T05:38:15.883Z,10.62
2019-05-01T05:39:25.839Z,10.67
2019-05-01T05:40:35.287Z,10.51
2019-05-01T05:41:44.995Z,10.65
2019-05-01T05:42:54.956Z,10.59
2019-05-01T05:44:04.641Z,10.55
2019-05-01T05:45:14.609Z,10.62
2019-05-01T05:46:24.300Z,10.62
2019-05-01T05:47:34.006Z,10.69
2019-05-01T05:48:43.707Z,10.59
2019-05-01T05:49:53.653Z,10.65
2019-05-01T05:51:03.675Z,10.65
2019-05-01T05:52:13.625Z,10.61
2019-05-01T05:53:23.330Z,10.69
2019-05-01T05:54:33.335Z,10.79
2019-05-01T05:55:42.829Z,10.75
2019-05-01T05:56:52.787Z,10.79
2019-05-01T05:58:01.983Z,10.79
2019-05-01T05:59:11.676Z,10.89
2019-05-01T06:00:21.365Z,10.9
2019-05-01T06:01:30.805Z,10.92
2019-05-01T06:02:40.789Z,10.98
2019-05-01T06:03:50.733Z,10.95
2019-05-01T06:05:00.460Z,11.07
2019-05-01T06:06:10.186Z,11.01
2019-05-01T06:07:20.145Z,10.97
2019-05-01T06:08:29.857Z,10.97
2019-05-01T06:09:39.809Z,11.04
2019-05-01T06:10:58.394Z,11.04
2019-05-01T06:12:11.364Z,11.12
2019-05-01T06:13:24.498Z,11.12
2019-05-01T06:14:36.408Z,11.16
2019-05-01T06:15:49.146Z,11.23
2019-05-01T06:16:59.207Z,11.16
2019-05-01T06:18:10.656Z,11.22
2019-05-01T06:19:21.155Z,11.27
2019-05-01T06:20:32.487Z,11.23
2019-05-01T06:21:44.937Z,11.27
2019-05-01T06:22:54.625Z,11.3
2019-05-01T06:24:11.410Z,11.23
2019-05-01T06:25:27.988Z,11.4
2019-05-01T06:26:42.458Z,11.37
2019-05-01T06:27:54.243Z,11.25
2019-05-01T06:29:05.584Z,11.25
2019-05-01T06:30:17.279Z,11.23
2019-05-01T06:31:29.289Z,11.3
2019-05-01T06:32:42.381Z,11.3
2019-05-01T06:33:55.786Z,11.26
2019-05-01T06:35:07.969Z,11.33
2019-05-01T06:36:19.089Z,11.33
2019-05-01T06:37:31.654Z,11.26
2019-05-01T06:38:42.602Z,11.2
2019-05-01T06:39:54.525Z,11.18
2019-05-01T06:41:04.770Z,11.08
2019-05-01T06:42:19.667Z,11.05
2019-05-01T06:43:30.543Z,11.1
2019-05-01T06:44:46.747Z,11.02
2019-05-01T06:45:59.803Z,11.07
2019-05-01T06:47:09.951Z,11.07
2019-05-01T06:48:23.595Z,11.01
2019-05-01T06:49:34.571Z,11.04
2019-05-01T06:50:46.609Z,11.07
2019-05-01T06:51:59.847Z,11.12
2019-05-01T06:53:11.351Z,11.08
2019-05-01T06:54:22.550Z,11.16
2019-05-01T06:55:33.524Z,11.13
2019-05-01T06:56:43.464Z,11.12
2019-05-01T06:57:53.424Z,11.16
2019-05-01T06:59:03.385Z,11.16
2019-05-01T07:00:14.282Z,11.12
2019-05-01T07:01:28.769Z,11.12
2019-05-01T07:02:39.794Z,11.22
2019-05-01T07:04:06.272Z,11.22
2019-05-01T07:05:21.127Z,11.31
2019-05-01T07:06:35.973Z,11.38
2019-05-01T07:07:53.075Z,11.48
2019-05-01T07:09:06.888Z,11.45
2019-05-01T07:10:46.475Z,11.52
2019-05-01T07:11:57.486Z,11.44
2019-05-01T07:13:10.003Z,11.56
2019-05-01T07:14:21.333Z,11.59
2019-05-01T07:15:32.888Z,11.52
2019-05-01T07:16:44.120Z,11.48
2019-05-01T07:17:54.071Z,11.3
2019-05-01T07:19:10.732Z,11.15
2019-05-01T07:20:21.403Z,11.01
2019-05-01T07:21:37.481Z,10.92
2019-05-01T07:22:48.917Z,10.76
2019-05-01T07:23:58.870Z,10.51
2019-05-01T07:25:09.997Z,10.41
2019-05-01T07:26:19.634Z,10.36
2019-05-01T07:27:30.006Z,10.34
2019-05-01T07:28:41.026Z,10.39
2019-05-01T07:29:51.490Z,10.28
2019-05-01T07:31:01.197Z,10.21
2019-05-01T07:32:15.035Z,10.1
2019-05-01T07:33:24.899Z,10.1
2019-05-01T07:34:34.364Z,10.2
2019-05-01T07:35:44.321Z,10.2
2019-05-01T07:36:55.201Z,10.25
2019-05-01T07:38:07.177Z,10.2
2019-05-01T07:39:19.270Z,10.23
2019-05-01T07:40:34.087Z,10.2
2019-05-01T07:41:43.848Z,10.41
2019-05-01T07:42:53.968Z,10.33
2019-05-01T07:44:04.464Z,10.34
2019-05-01T07:45:14.596Z,10.41
2019-05-01T07:46:24.534Z,10.42
2019-05-01T07:47:35.404Z,10.3
2019-05-01T07:48:46.542Z,10.25
2019-05-01T07:49:57.541Z,10.27
2019-05-01T07:51:11.918Z,10.39
2019-05-01T07:52:23.484Z,10.33
2019-05-01T07:53:34.019Z,10.48
2019-05-01T07:54:49.623Z,10.53
2019-05-01T07:55:59.580Z,10.58
2019-05-01T07:57:09.703Z,10.57
2019-05-01T07:58:21.406Z,10.64
2019-05-01T07:59:32.572Z,10.68
2019-05-01T08:00:46.550Z,10.71
2019-05-01T08:01:59.350Z,10.62
2019-05-01T08:03:12.112Z,10.65
2019-05-01T08:04:37.953Z,10.69
2019-05-01T08:05:51.388Z,10.59
2019-05-01T08:07:03.352Z,10.69
2019-05-01T08:08:14.394Z,10.59
2019-05-01T08:09:24.337Z,10.64
2019-05-01T08:10:36.996Z,10.82
2019-05-01T08:11:49.069Z,10.75
2019-05-01T08:13:02.919Z,10.86
2019-05-01T08:14:19.148Z,10.9
2019-05-01T08:15:35.171Z,10.92
2019-05-01T08:16:47.259Z,11.05
2019-05-01T08:17:58.738Z,11.1
2019-05-01T08:19:10.532Z,11.16
2019-05-01T08:20:21.650Z,11.31
2019-05-01T08:21:32.420Z,11.27
2019-05-01T08:22:43.769Z,11.25
2019-05-01T08:23:53.714Z,11.35
2019-05-01T08:25:04.818Z,11.44
2019-05-01T08:26:15.102Z,11.51
2019-05-01T08:27:26.190Z,11.53
2019-05-01T08:28:36.614Z,11.58
2019-05-01T08:29:48.540Z,11.51
2019-05-01T08:30:58.914Z,11.58
2019-05-01T08:32:09.496Z,11.58
2019-05-01T08:33:20.856Z,11.67
2019-05-01T08:34:32.266Z,11.74
2019-05-01T08:35:53.914Z,11.81
2019-05-01T08:37:06.384Z,11.93
2019-05-01T08:38:16.554Z,11.88
2019-05-01T08:39:25.990Z,12.02
2019-05-01T08:40:37.289Z,11.99
2019-05-01T08:41:47.081Z,12.02
2019-05-01T08:42:56.788Z,12.05
2019-05-01T08:44:06.491Z,11.96
2019-05-01T08:45:16.176Z,11.99
2019-05-01T08:46:27.376Z,12.08
2019-05-01T08:47:36.815Z,12.08
2019-05-01T08:48:46.520Z,12.02
2019-05-01T08:49:56.491Z,12
2019-05-01T08:51:06.446Z,12.18
2019-05-01T08:52:18.735Z,12.26
2019-05-01T08:53:28.695Z,12.4
2019-05-01T08:54:39.390Z,12.51
2019-05-01T08:55:51.732Z,12.75
2019-05-01T08:57:03.019Z,13.03
2019-05-01T08:58:18.966Z,13.11
2019-05-01T08:59:30.639Z,12.94
2019-05-01T09:00:43.816Z,13.05
2019-05-01T09:02:11.421Z,13.21
2019-05-01T09:03:23.648Z,13.4
2019-05-01T09:04:35.486Z,13.65
2019-05-01T09:05:45.443Z,13.94
2019-05-01T09:07:02.882Z,13.67
2019-05-01T09:08:12.822Z,13.58
2019-05-01T09:09:22.781Z,13.67
2019-05-01T09:10:32.473Z,13.73
2019-05-01T09:11:42.210Z,14.04
2019-05-01T09:12:54.576Z,14.01
2019-05-01T09:14:04.946Z,14.26
2019-05-01T09:15:17.827Z,14.31
2019-05-01T09:16:31.146Z,14.45
2019-05-01T09:17:41.102Z,14.33
2019-05-01T09:18:50.793Z,14.44
2019-05-01T09:20:00.495Z,14.48
2019-05-01T09:21:10.454Z,14.45
2019-05-01T09:22:20.410Z,14.67
2019-05-01T09:23:30.104Z,15.02
2019-05-01T09:24:41.848Z,15.14
2019-05-01T09:25:51.550Z,15.19
2019-05-01T09:27:01.532Z,15.26
2019-05-01T09:28:11.253Z,15.22
2019-05-01T09:29:22.445Z,15.26
2019-05-01T09:30:33.605Z,15.22
2019-05-01T09:31:43.316Z,15.32
2019-05-01T09:32:58.997Z,15.37
2019-05-01T09:34:13.931Z,15.48
2019-05-01T09:35:26.833Z,15.69
2019-05-01T09:36:36.820Z,15.88
2019-05-01T09:37:46.778Z,16.02
2019-05-01T09:38:56.758Z,16.26
2019-05-01T09:40:11.704Z,16.09
2019-05-01T09:41:21.661Z,16.21
2019-05-01T09:42:43.141Z,16.32
2019-05-01T09:43:52.835Z,16.46
2019-05-01T09:45:02.792Z,16.62
2019-05-01T09:46:12.273Z,16.62
2019-05-01T09:47:22.226Z,16.29
2019-05-01T09:48:32.170Z,16.22
2019-05-01T09:49:42.115Z,16.29
2019-05-01T09:50:54.092Z,16.39
2019-05-01T09:52:05.661Z,16.32
2019-05-01T09:53:15.378Z,16.29
2019-05-01T09:54:24.572Z,15.99
2019-05-01T09:55:34.279Z,15.57
2019-05-01T09:56:44.007Z,15.51
2019-05-01T09:57:53.744Z,15.35
2019-05-01T09:59:03.442Z,15.44
2019-05-01T10:00:13.128Z,15.54
2019-05-01T10:01:32.850Z,15.88
2019-05-01T10:02:47.300Z,16.25
2019-05-01T10:04:01.267Z,16.74
2019-05-01T10:05:13.081Z,17.09
2019-05-01T10:06:35.938Z,17.3
2019-05-01T10:07:45.895Z,17.02
2019-05-01T10:08:55.344Z,17.07
2019-05-01T10:10:05.294Z,17.24
2019-05-01T10:11:15.276Z,17.49
2019-05-01T10:12:24.740Z,17.69
2019-05-01T10:13:34.481Z,17.97
2019-05-01T10:14:44.193Z,18.23
2019-05-01T10:15:54.144Z,18.42
2019-05-01T10:17:03.610Z,18.57
2019-05-01T10:18:13.318Z,17.97
2019-05-01T10:19:23.259Z,17.84
2019-05-01T10:20:32.975Z,17.86
2019-05-01T10:21:42.942Z,17.93
2019-05-01T10:22:52.639Z,17.84
2019-05-01T10:24:02.091Z,17.94
2019-05-01T10:25:15.005Z,18.41
2019-05-01T10:26:28.988Z,18.34
2019-05-01T10:27:40.786Z,18.64
2019-05-01T10:28:55.045Z,18.81
2019-05-01T10:30:06.666Z,18.88
2019-05-01T10:31:18.025Z,18.89
2019-05-01T10:32:28.063Z,19.04
2019-05-01T10:33:38.661Z,19.3
2019-05-01T10:34:49.434Z,19.52
2019-05-01T10:36:02.068Z,19.85
2019-05-01T10:37:11.773Z,20.26
2019-05-01T10:38:21.464Z,20.56
2019-05-01T10:39:32.700Z,20.78
2019-05-01T10:40:42.668Z,20.29
2019-05-01T10:41:52.740Z,20.24
2019-05-01T10:43:02.690Z,20.42
2019-05-01T10:44:12.414Z,20.6
2019-05-01T10:45:22.372Z,20.74
2019-05-01T10:46:32.079Z,20.88
2019-05-01T10:47:42.063Z,20.96
2019-05-01T10:48:52.024Z,21.17
2019-05-01T10:50:04.865Z,20.92
2019-05-01T10:51:14.571Z,20.67
2019-05-01T10:52:24.319Z,20.68
2019-05-01T10:53:34.274Z,20.34
2019-05-01T10:54:46.488Z,19.81
2019-05-01T10:55:56.550Z,19.44
2019-05-01T10:57:08.091Z,19.48
2019-05-01T10:58:23.605Z,19.82
2019-05-01T10:59:33.568Z,19.77
2019-05-01T11:00:43.541Z,19.12
2019-05-01T11:01:53.549Z,18.7
2019-05-01T11:03:03.257Z,18.98
2019-05-01T11:04:12.969Z,19.3
2019-05-01T11:05:22.922Z,19.63
2019-05-01T11:06:32.864Z,20.11
2019-05-01T11:07:42.387Z,20.42
2019-05-01T11:08:51.839Z,20.77
2019-05-01T11:10:01.802Z,20.95
2019-05-01T11:11:11.770Z,20.86
2019-05-01T11:12:21.716Z,21.08
2019-05-01T11:13:31.418Z,21.3
2019-05-01T11:14:41.376Z,21.43
2019-05-01T11:15:51.331Z,21.45
2019-05-01T11:17:00.793Z,21.45
2019-05-01T11:18:10.737Z,21.38
2019-05-01T11:19:20.435Z,21.5
2019-05-01T11:20:30.412Z,21.37
2019-05-01T11:21:40.131Z,21.3
2019-05-01T11:22:50.093Z,21.48
2019-05-01T11:24:00.069Z,21.5
2019-05-01T11:25:10.033Z,21.6
2019-05-01T11:26:19.747Z,21.3
2019-05-01T11:27:29.692Z,20.9
2019-05-01T11:28:39.397Z,20.37
2019-05-01T11:29:49.132Z,19.93
2019-05-01T11:30:58.918Z,20.19
2019-05-01T11:32:08.893Z,19.96
2019-05-01T11:33:18.850Z,19.75
2019-05-01T11:34:31.573Z,19.55
2019-05-01T11:35:41.034Z,19.39
2019-05-01T11:36:50.791Z,19.35
2019-05-01T11:38:00.758Z,19.63
2019-05-01T11:39:10.707Z,20
2019-05-01T11:40:20.679Z,20.27
2019-05-01T11:41:30.647Z,20.53
2019-05-01T11:42:40.609Z,20.55
2019-05-01T11:43:50.329Z,19.96
2019-05-01T11:45:00.300Z,19.66
2019-05-01T11:46:10.257Z,19.34
2019-05-01T11:47:19.968Z,19.26
2019-05-01T11:48:32.971Z,19.05
2019-05-01T11:49:42.940Z,19.11
2019-05-01T11:50:52.636Z,19.48
2019-05-01T11:52:02.363Z,19.77
2019-05-01T11:53:12.330Z,20.03
2019-05-01T11:54:22.051Z,20.14
2019-05-01T11:55:32.012Z,20.14
2019-05-01T11:56:42.091Z,20.17
2019-05-01T11:57:51.892Z,20.08
2019-05-01T11:59:01.347Z,20.1
2019-05-01T12:00:11.329Z,20.19
2019-05-01T12:01:21.305Z,20.49
2019-05-01T12:02:31.276Z,20.66
2019-05-01T12:03:40.994Z,20.78
2019-05-01T12:04:50.450Z,20.9
2019-05-01T12:06:00.426Z,20.71
2019-05-01T12:07:09.875Z,21.03
2019-05-01T12:08:19.852Z,21.15
2019-05-01T12:09:29.572Z,21.14
2019-05-01T12:10:39.530Z,21.41
2019-05-01T12:11:48.988Z,21.44
2019-05-01T12:12:58.942Z,20.85
2019-05-01T12:14:08.146Z,20.88
2019-05-01T12:15:18.107Z,20.92
2019-05-01T12:16:28.074Z,21.17
2019-05-01T12:17:38.968Z,21
2019-05-01T12:18:49.105Z,20.42
2019-05-01T12:19:59.103Z,20.14
2019-05-01T12:21:09.071Z,20.07
2019-05-01T12:22:18.532Z,19.59
2019-05-01T12:23:28.477Z,19.77
2019-05-01T12:24:38.190Z,19.66
2019-05-01T12:25:47.919Z,19.66
2019-05-01T12:26:57.665Z,19.79
2019-05-01T12:28:07.639Z,19.93
2019-05-01T12:29:17.094Z,20.21
2019-05-01T12:30:27.058Z,20.34
2019-05-01T12:31:37.033Z,20.27
2019-05-01T12:32:46.525Z,20.11
2019-05-01T12:33:56.541Z,20.36
2019-05-01T12:35:06.257Z,20.64
2019-05-01T12:36:16.220Z,20.9
2019-05-01T12:37:26.182Z,20.86
2019-05-01T12:38:35.926Z,20.55
2019-05-01T12:39:45.370Z,20.17
2019-05-01T12:40:55.091Z,19.82
2019-05-01T12:42:04.824Z,19.78
2019-05-01T12:43:17.118Z,19.79
2019-05-01T12:44:27.124Z,19.66
2019-05-01T12:45:37.095Z,19.78
2019-05-01T12:46:47.057Z,19.84
2019-05-01T12:47:57.040Z,20.12
2019-05-01T12:49:06.761Z,20.26
2019-05-01T12:50:16.715Z,19.81
2019-05-01T12:51:26.440Z,19.81
2019-05-01T12:52:36.416Z,19.85
2019-05-01T12:53:46.136Z,19.78
2019-05-01T12:54:56.907Z,19.79
2019-05-01T12:56:06.617Z,19.82
2019-05-01T12:57:16.577Z,19.6
2019-05-01T12:58:26.553Z,19.29
2019-05-01T12:59:36.008Z,19.49
2019-05-01T13:00:45.457Z,19.44
2019-05-01T13:01:55.497Z,19.67
2019-05-01T13:03:05.471Z,19.85
2019-05-01T13:04:15.173Z,20.12
2019-05-01T13:05:25.132Z,20.04
2019-05-01T13:06:34.850Z,19.9
2019-05-01T13:07:57.116Z,19.71
2019-05-01T13:09:06.828Z,19.63
2019-05-01T13:10:16.793Z,19.48
2019-05-01T13:11:26.510Z,19.87
2019-05-01T13:12:36.462Z,20.4
2019-05-01T13:13:46.178Z,20.68
2019-05-01T13:14:56.134Z,20.82
2019-05-01T13:16:06.142Z,20.86
2019-05-01T13:17:16.116Z,20.9
2019-05-01T13:18:26.084Z,21.03
2019-05-01T13:19:36.034Z,20.75
2019-05-01T13:20:46.008Z,20.53
2019-05-01T13:21:55.978Z,20.5
2019-05-01T13:23:05.941Z,20.58
2019-05-01T13:24:15.920Z,20.74
2019-05-01T13:25:25.909Z,20.64
2019-05-01T13:26:35.881Z,20.32
2019-05-01T13:27:45.586Z,20.21
2019-05-01T13:28:55.549Z,20.22
2019-05-01T13:30:05.514Z,20.12
2019-05-01T13:31:15.240Z,20.14
2019-05-01T13:32:25.204Z,19.87
2019-05-01T13:33:34.916Z,19.74
2019-05-01T13:34:44.906Z,19.75
2019-05-01T13:35:54.366Z,19.92
2019-05-01T13:37:08.204Z,20.11
2019-05-01T13:38:17.921Z,20.17
2019-05-01T13:39:27.918Z,20.53
2019-05-01T13:40:37.382Z,20.58
2019-05-01T13:41:47.092Z,20.88
2019-05-01T13:42:57.052Z,21.17
2019-05-01T13:44:06.762Z,21.37
2019-05-01T13:45:16.474Z,21.45
2019-05-01T13:46:26.431Z,21.4
2019-05-01T13:47:36.387Z,21.54
2019-05-01T13:48:46.367Z,21.74
2019-05-01T13:49:55.848Z,22.16
2019-05-01T13:51:05.838Z,22.3
2019-05-01T13:52:15.814Z,22.01
2019-05-01T13:53:25.522Z,21.92
2019-05-01T13:54:35.268Z,21.75
2019-05-01T13:55:45.228Z,21.54
2019-05-01T13:56:54.674Z,21.47
2019-05-01T13:58:04.382Z,21.35
2019-05-01T13:59:14.329Z,21.2
2019-05-01T14:00:24.301Z,20.89
2019-05-01T14:01:34.011Z,20.73
2019-05-01T14:02:43.995Z,20.37
2019-05-01T14:03:53.719Z,20.19
2019-05-01T14:05:03.192Z,20.21
2019-05-01T14:06:12.912Z,20.07
2019-05-01T14:07:22.876Z,20.11
2019-05-01T14:08:32.340Z,20.19
2019-05-01T14:09:42.053Z,20.22
2019-05-01T14:10:52.029Z,20.27
2019-05-01T14:12:02.010Z,20.34
2019-05-01T14:13:11.731Z,20.44
2019-05-01T14:14:21.695Z,20.4
2019-05-01T14:15:31.694Z,20.56
2019-05-01T14:16:41.146Z,20.5
2019-05-01T14:17:51.093Z,20.64
2019-05-01T14:19:01.044Z,20.75
2019-05-01T14:20:10.760Z,20.66
2019-05-01T14:21:20.463Z,20.53
2019-05-01T14:22:29.927Z,20.64
2019-05-01T14:23:39.671Z,20.4
2019-05-01T14:24:49.424Z,20.5
2019-05-01T14:25:59.371Z,20.56
2019-05-01T14:27:12.434Z,20.36
2019-05-01T14:28:21.880Z,20.26
2019-05-01T14:29:31.840Z,20.21
2019-05-01T14:30:41.800Z,20.32
2019-05-01T14:31:51.761Z,20.5
2019-05-01T14:33:01.475Z,20.44
2019-05-01T14:34:11.206Z,20.44
2019-05-01T14:35:21.180Z,20.63
2019-05-01T14:36:30.909Z,20.7
2019-05-01T14:37:40.889Z,20.86
2019-05-01T14:38:50.859Z,21.03
2019-05-01T14:40:00.311Z,21.13
2019-05-01T14:41:10.268Z,21.23
2019-05-01T14:42:20.225Z,21.26
2019-05-01T14:43:29.940Z,21.33
2019-05-01T14:44:41.890Z,21.22
2019-05-01T14:45:51.592Z,20.89
2019-05-01T14:47:03.714Z,21.07
2019-05-01T14:48:13.641Z,21.32
2019-05-01T14:49:23.600Z,21.56
2019-05-01T14:50:33.557Z,21.63
2019-05-01T14:51:43.517Z,21.33
2019-05-01T14:52:53.477Z,21.01
2019-05-01T14:54:03.507Z,20.82
2019-05-01T14:55:13.482Z,20.64
2019-05-01T14:56:23.432Z,20.4
2019-05-01T14:57:33.385Z,20.33
2019-05-01T14:58:43.344Z,20.53
2019-05-01T14:59:53.304Z,20.64
2019-05-01T15:01:03.256Z,20.86
2019-05-01T15:02:12.975Z,21
2019-05-01T15:03:22.441Z,21.14
2019-05-01T15:04:32.399Z,21.22
2019-05-01T15:05:42.361Z,21.2
2019-05-01T15:06:52.075Z,21.41
2019-05-01T15:08:01.788Z,21.6
2019-05-01T15:09:11.749Z,21.63
2019-05-01T15:10:21.712Z,21.38
2019-05-01T15:11:31.675Z,20.73